sensor_id;sensor_type;location;lat;lon;timestamp;P1;durP1;ratioP1;P2;durP2;ratioP2
9034;SDS011;4552;43.422;24.592;2023-02-28T00:00:37;13.10;;;8.03;;
9034;SDS011;4552;43.422;24.592;2023-02-28T00:03:06;16.40;;;8.70;;
9034;SDS011;4552;43.422;24.592;2023-02-28T00:05:33;14.10;;;7.93;;
9034;SDS011;4552;43.422;24.592;2023-02-28T00:08:01;15.70;;;8.07;;
9034;SDS011;4552;43.422;24.592;2023-02-28T00:10:29;14.23;;;8.37;;
9034;SDS011;4552;43.422;24.592;2023-02-28T00:12:59;14.10;;;8.37;;
9034;SDS011;4552;43.422;24.592;2023-02-28T00:15:28;16.80;;;8.77;;
9034;SDS011;4552;43.422;24.592;2023-02-28T00:17:55;14.43;;;8.50;;
9034;SDS011;4552;43.422;24.592;2023-02-28T00:20:22;16.27;;;8.13;;
9034;SDS011;4552;43.422;24.592;2023-02-28T00:22:51;13.20;;;7.40;;
9034;SDS011;4552;43.422;24.592;2023-02-28T00:25:19;15.03;;;8.10;;
9034;SDS011;4552;43.422;24.592;2023-02-28T00:27:50;12.07;;;7.50;;
9034;SDS011;4552;43.422;24.592;2023-02-28T00:30:18;15.93;;;8.90;;
9034;SDS011;4552;43.422;24.592;2023-02-28T00:32:46;14.23;;;7.47;;
9034;SDS011;4552;43.422;24.592;2023-02-28T00:35:13;14.40;;;8.57;;
9034;SDS011;4552;43.422;24.592;2023-02-28T00:37:41;13.17;;;8.10;;
9034;SDS011;4552;43.422;24.592;2023-02-28T00:40:08;16.23;;;7.83;;
9034;SDS011;4552;43.422;24.592;2023-02-28T00:42:38;14.17;;;8.40;;
9034;SDS011;4552;43.422;24.592;2023-02-28T00:45:08;11.67;;;7.20;;
9034;SDS011;4552;43.422;24.592;2023-02-28T00:47:35;18.43;;;8.63;;
9034;SDS011;4552;43.422;24.592;2023-02-28T00:50:02;14.43;;;8.20;;
9034;SDS011;4552;43.422;24.592;2023-02-28T00:52:30;15.57;;;8.80;;
9034;SDS011;4552;43.422;24.592;2023-02-28T00:54:57;16.03;;;8.70;;
9034;SDS011;4552;43.422;24.592;2023-02-28T00:57:24;14.17;;;8.63;;
9034;SDS011;4552;43.422;24.592;2023-02-28T00:59:51;15.60;;;9.10;;
9034;SDS011;4552;43.422;24.592;2023-02-28T01:02:23;17.20;;;8.90;;
9034;SDS011;4552;43.422;24.592;2023-02-28T01:04:53;18.13;;;9.47;;
9034;SDS011;4552;43.422;24.592;2023-02-28T01:07:31;16.67;;;9.20;;
9034;SDS011;4552;43.422;24.592;2023-02-28T01:09:59;22.20;;;8.80;;
9034;SDS011;4552;43.422;24.592;2023-02-28T01:12:26;15.80;;;9.07;;
9034;SDS011;4552;43.422;24.592;2023-02-28T01:14:53;16.00;;;9.20;;
9034;SDS011;4552;43.422;24.592;2023-02-28T01:17:24;15.00;;;8.60;;
9034;SDS011;4552;43.422;24.592;2023-02-28T01:19:52;13.97;;;8.60;;
9034;SDS011;4552;43.422;24.592;2023-02-28T01:22:20;12.17;;;7.30;;
9034;SDS011;4552;43.422;24.592;2023-02-28T01:24:47;12.50;;;7.87;;
9034;SDS011;4552;43.422;24.592;2023-02-28T01:27:14;15.47;;;8.37;;
9034;SDS011;4552;43.422;24.592;2023-02-28T01:29:41;13.27;;;8.23;;
9034;SDS011;4552;43.422;24.592;2023-02-28T01:32:08;17.03;;;8.40;;
9034;SDS011;4552;43.422;24.592;2023-02-28T01:34:38;14.77;;;8.23;;
9034;SDS011;4552;43.422;24.592;2023-02-28T01:37:05;13.53;;;7.20;;
9034;SDS011;4552;43.422;24.592;2023-02-28T01:39:32;15.73;;;7.33;;
9034;SDS011;4552;43.422;24.592;2023-02-28T01:41:59;15.83;;;8.60;;
9034;SDS011;4552;43.422;24.592;2023-02-28T01:47:29;15.40;;;7.87;;
9034;SDS011;4552;43.422;24.592;2023-02-28T01:50:01;14.87;;;7.83;;
9034;SDS011;4552;43.422;24.592;2023-02-28T01:52:34;13.43;;;8.00;;
9034;SDS011;4552;43.422;24.592;2023-02-28T01:55:01;11.63;;;7.97;;
9034;SDS011;4552;43.422;24.592;2023-02-28T01:57:32;14.00;;;8.00;;
9034;SDS011;4552;43.422;24.592;2023-02-28T02:00:07;14.17;;;7.87;;
9034;SDS011;4552;43.422;24.592;2023-02-28T02:02:40;13.27;;;7.57;;
9034;SDS011;4552;43.422;24.592;2023-02-28T02:05:12;14.47;;;8.10;;
9034;SDS011;4552;43.422;24.592;2023-02-28T02:07:43;14.57;;;7.73;;
9034;SDS011;4552;43.422;24.592;2023-02-28T02:10:14;17.33;;;8.87;;
9034;SDS011;4552;43.422;24.592;2023-02-28T02:12:48;11.17;;;7.00;;
9034;SDS011;4552;43.422;24.592;2023-02-28T02:15:29;13.70;;;8.20;;
9034;SDS011;4552;43.422;24.592;2023-02-28T02:18:01;12.40;;;7.67;;
9034;SDS011;4552;43.422;24.592;2023-02-28T02:23:54;11.00;;;6.97;;
9034;SDS011;4552;43.422;24.592;2023-02-28T02:26:47;11.97;;;7.57;;
9034;SDS011;4552;43.422;24.592;2023-02-28T02:29:38;12.10;;;6.67;;
9034;SDS011;4552;43.422;24.592;2023-02-28T02:32:46;10.17;;;6.10;;
9034;SDS011;4552;43.422;24.592;2023-02-28T02:35:31;10.53;;;6.63;;
9034;SDS011;4552;43.422;24.592;2023-02-28T02:38:08;9.57;;;5.90;;
9034;SDS011;4552;43.422;24.592;2023-02-28T02:40:43;12.57;;;6.07;;
9034;SDS011;4552;43.422;24.592;2023-02-28T02:43:16;8.80;;;5.23;;
9034;SDS011;4552;43.422;24.592;2023-02-28T02:45:47;9.53;;;5.60;;
9034;SDS011;4552;43.422;24.592;2023-02-28T02:48:19;8.80;;;5.77;;
9034;SDS011;4552;43.422;24.592;2023-02-28T02:50:54;6.43;;;4.87;;
9034;SDS011;4552;43.422;24.592;2023-02-28T02:53:24;7.17;;;4.97;;
9034;SDS011;4552;43.422;24.592;2023-02-28T02:55:56;7.70;;;5.37;;
9034;SDS011;4552;43.422;24.592;2023-02-28T02:58:27;7.50;;;5.13;;
9034;SDS011;4552;43.422;24.592;2023-02-28T03:00:58;7.40;;;4.90;;
9034;SDS011;4552;43.422;24.592;2023-02-28T03:03:28;8.83;;;5.50;;
9034;SDS011;4552;43.422;24.592;2023-02-28T03:05:59;7.13;;;5.37;;
9034;SDS011;4552;43.422;24.592;2023-02-28T03:08:34;10.27;;;6.50;;
9034;SDS011;4552;43.422;24.592;2023-02-28T03:11:03;8.80;;;5.47;;
9034;SDS011;4552;43.422;24.592;2023-02-28T03:13:49;8.67;;;5.67;;
9034;SDS011;4552;43.422;24.592;2023-02-28T03:16:29;7.90;;;5.93;;
9034;SDS011;4552;43.422;24.592;2023-02-28T03:19:15;9.00;;;6.00;;
9034;SDS011;4552;43.422;24.592;2023-02-28T03:22:06;11.80;;;6.90;;
9034;SDS011;4552;43.422;24.592;2023-02-28T03:24:43;10.67;;;5.87;;
9034;SDS011;4552;43.422;24.592;2023-02-28T03:27:16;9.50;;;6.40;;
9034;SDS011;4552;43.422;24.592;2023-02-28T03:29:50;10.37;;;6.80;;
9034;SDS011;4552;43.422;24.592;2023-02-28T03:32:21;8.90;;;6.43;;
9034;SDS011;4552;43.422;24.592;2023-02-28T03:34:55;10.57;;;6.53;;
9034;SDS011;4552;43.422;24.592;2023-02-28T03:37:36;10.27;;;6.60;;
9034;SDS011;4552;43.422;24.592;2023-02-28T03:40:08;11.47;;;6.73;;
9034;SDS011;4552;43.422;24.592;2023-02-28T03:42:39;11.57;;;6.73;;
9034;SDS011;4552;43.422;24.592;2023-02-28T03:45:10;9.47;;;6.17;;
9034;SDS011;4552;43.422;24.592;2023-02-28T03:47:41;10.03;;;6.43;;
9034;SDS011;4552;43.422;24.592;2023-02-28T03:50:13;11.07;;;6.47;;
9034;SDS011;4552;43.422;24.592;2023-02-28T03:52:47;8.50;;;6.43;;
9034;SDS011;4552;43.422;24.592;2023-02-28T03:55:17;13.70;;;7.17;;
9034;SDS011;4552;43.422;24.592;2023-02-28T03:57:49;12.30;;;6.53;;
9034;SDS011;4552;43.422;24.592;2023-02-28T04:00:25;9.57;;;6.20;;
9034;SDS011;4552;43.422;24.592;2023-02-28T04:02:58;10.10;;;6.53;;
9034;SDS011;4552;43.422;24.592;2023-02-28T04:05:25;9.23;;;5.97;;
9034;SDS011;4552;43.422;24.592;2023-02-28T04:07:59;10.83;;;6.17;;
9034;SDS011;4552;43.422;24.592;2023-02-28T04:10:30;11.07;;;7.07;;
9034;SDS011;4552;43.422;24.592;2023-02-28T04:12:57;10.93;;;6.70;;
9034;SDS011;4552;43.422;24.592;2023-02-28T04:15:24;8.53;;;6.60;;
9034;SDS011;4552;43.422;24.592;2023-02-28T04:17:52;12.77;;;9.20;;
9034;SDS011;4552;43.422;24.592;2023-02-28T04:20:20;18.63;;;10.70;;
9034;SDS011;4552;43.422;24.592;2023-02-28T04:22:47;19.73;;;12.07;;
9034;SDS011;4552;43.422;24.592;2023-02-28T04:25:15;22.63;;;13.37;;
9034;SDS011;4552;43.422;24.592;2023-02-28T04:27:42;20.13;;;12.70;;
9034;SDS011;4552;43.422;24.592;2023-02-28T04:30:10;14.73;;;9.53;;
9034;SDS011;4552;43.422;24.592;2023-02-28T04:32:40;12.03;;;8.10;;
9034;SDS011;4552;43.422;24.592;2023-02-28T04:35:07;13.03;;;7.73;;
9034;SDS011;4552;43.422;24.592;2023-02-28T04:37:34;9.77;;;6.37;;
9034;SDS011;4552;43.422;24.592;2023-02-28T04:40:02;9.43;;;5.40;;
9034;SDS011;4552;43.422;24.592;2023-02-28T04:42:31;7.43;;;5.37;;
9034;SDS011;4552;43.422;24.592;2023-02-28T04:45:01;6.50;;;5.13;;
9034;SDS011;4552;43.422;24.592;2023-02-28T04:47:28;8.43;;;5.93;;
9034;SDS011;4552;43.422;24.592;2023-02-28T04:49:55;9.03;;;6.00;;
9034;SDS011;4552;43.422;24.592;2023-02-28T04:52:23;8.37;;;5.53;;
9034;SDS011;4552;43.422;24.592;2023-02-28T04:54:50;6.80;;;5.10;;
9034;SDS011;4552;43.422;24.592;2023-02-28T04:57:19;9.70;;;6.17;;
9034;SDS011;4552;43.422;24.592;2023-02-28T04:59:52;7.03;;;5.30;;
9034;SDS011;4552;43.422;24.592;2023-02-28T05:02:22;8.30;;;5.67;;
9034;SDS011;4552;43.422;24.592;2023-02-28T05:04:49;8.87;;;6.23;;
9034;SDS011;4552;43.422;24.592;2023-02-28T05:07:16;8.47;;;5.47;;
9034;SDS011;4552;43.422;24.592;2023-02-28T05:09:44;7.53;;;5.90;;
9034;SDS011;4552;43.422;24.592;2023-02-28T05:12:11;9.73;;;6.27;;
9034;SDS011;4552;43.422;24.592;2023-02-28T05:14:39;8.77;;;5.63;;
9034;SDS011;4552;43.422;24.592;2023-02-28T05:17:07;10.43;;;6.67;;
9034;SDS011;4552;43.422;24.592;2023-02-28T05:19:35;10.60;;;6.50;;
9034;SDS011;4552;43.422;24.592;2023-02-28T05:22:02;10.20;;;6.17;;
9034;SDS011;4552;43.422;24.592;2023-02-28T05:24:31;7.23;;;4.67;;
9034;SDS011;4552;43.422;24.592;2023-02-28T05:27:02;9.20;;;5.87;;
9034;SDS011;4552;43.422;24.592;2023-02-28T05:29:30;10.90;;;6.50;;
9034;SDS011;4552;43.422;24.592;2023-02-28T05:32:08;10.87;;;6.33;;
9034;SDS011;4552;43.422;24.592;2023-02-28T05:34:36;9.50;;;6.33;;
9034;SDS011;4552;43.422;24.592;2023-02-28T05:37:03;11.60;;;6.73;;
9034;SDS011;4552;43.422;24.592;2023-02-28T05:39:33;10.90;;;6.87;;
9034;SDS011;4552;43.422;24.592;2023-02-28T05:42:01;8.87;;;5.90;;
9034;SDS011;4552;43.422;24.592;2023-02-28T05:44:28;9.83;;;6.13;;
9034;SDS011;4552;43.422;24.592;2023-02-28T05:46:56;10.20;;;6.20;;
9034;SDS011;4552;43.422;24.592;2023-02-28T05:49:25;10.63;;;6.47;;
9034;SDS011;4552;43.422;24.592;2023-02-28T05:51:53;11.17;;;6.43;;
9034;SDS011;4552;43.422;24.592;2023-02-28T05:54:20;10.43;;;6.23;;
9034;SDS011;4552;43.422;24.592;2023-02-28T05:56:47;10.27;;;6.60;;
9034;SDS011;4552;43.422;24.592;2023-02-28T05:59:14;10.27;;;6.37;;
9034;SDS011;4552;43.422;24.592;2023-02-28T06:01:42;10.43;;;7.13;;
9034;SDS011;4552;43.422;24.592;2023-02-28T06:04:13;13.17;;;6.77;;
9034;SDS011;4552;43.422;24.592;2023-02-28T06:06:45;10.33;;;7.00;;
9034;SDS011;4552;43.422;24.592;2023-02-28T06:09:14;9.17;;;6.10;;
9034;SDS011;4552;43.422;24.592;2023-02-28T06:11:44;12.40;;;6.53;;
9034;SDS011;4552;43.422;24.592;2023-02-28T06:14:12;12.63;;;6.93;;
9034;SDS011;4552;43.422;24.592;2023-02-28T06:16:46;10.80;;;6.53;;
9034;SDS011;4552;43.422;24.592;2023-02-28T06:19:16;12.63;;;7.57;;
9034;SDS011;4552;43.422;24.592;2023-02-28T06:21:45;12.33;;;6.87;;
9034;SDS011;4552;43.422;24.592;2023-02-28T06:24:15;9.93;;;7.07;;
9034;SDS011;4552;43.422;24.592;2023-02-28T06:26:43;12.00;;;7.67;;
9034;SDS011;4552;43.422;24.592;2023-02-28T06:29:10;13.87;;;7.73;;
9034;SDS011;4552;43.422;24.592;2023-02-28T06:31:38;12.10;;;6.90;;
9034;SDS011;4552;43.422;24.592;2023-02-28T06:34:05;13.57;;;8.00;;
9034;SDS011;4552;43.422;24.592;2023-02-28T06:36:33;10.77;;;6.80;;
9034;SDS011;4552;43.422;24.592;2023-02-28T06:39:02;12.85;;;9.13;;
9034;SDS011;4552;43.422;24.592;2023-02-28T06:41:29;12.97;;;7.90;;
9034;SDS011;4552;43.422;24.592;2023-02-28T06:43:56;13.47;;;7.90;;
9034;SDS011;4552;43.422;24.592;2023-02-28T06:46:24;10.33;;;6.80;;
9034;SDS011;4552;43.422;24.592;2023-02-28T06:48:51;12.53;;;7.13;;
9034;SDS011;4552;43.422;24.592;2023-02-28T06:51:19;8.97;;;6.60;;
9034;SDS011;4552;43.422;24.592;2023-02-28T06:53:47;10.17;;;7.37;;
9034;SDS011;4552;43.422;24.592;2023-02-28T06:56:16;11.70;;;6.67;;
9034;SDS011;4552;43.422;24.592;2023-02-28T06:58:45;10.17;;;6.87;;
9034;SDS011;4552;43.422;24.592;2023-02-28T07:01:13;12.53;;;7.60;;
9034;SDS011;4552;43.422;24.592;2023-02-28T07:03:41;17.47;;;8.57;;
9034;SDS011;4552;43.422;24.592;2023-02-28T07:06:09;10.57;;;7.27;;
9034;SDS011;4552;43.422;24.592;2023-02-28T07:08:36;16.60;;;8.37;;
9034;SDS011;4552;43.422;24.592;2023-02-28T07:11:05;14.13;;;8.77;;
9034;SDS011;4552;43.422;24.592;2023-02-28T07:13:33;12.70;;;7.17;;
9034;SDS011;4552;43.422;24.592;2023-02-28T07:16:03;11.47;;;6.83;;
9034;SDS011;4552;43.422;24.592;2023-02-28T07:18:34;12.80;;;6.73;;
9034;SDS011;4552;43.422;24.592;2023-02-28T07:21:02;20.17;;;7.83;;
9034;SDS011;4552;43.422;24.592;2023-02-28T07:23:30;11.37;;;7.60;;
9034;SDS011;4552;43.422;24.592;2023-02-28T07:25:57;12.63;;;7.67;;
9034;SDS011;4552;43.422;24.592;2023-02-28T07:28:26;16.33;;;9.67;;
9034;SDS011;4552;43.422;24.592;2023-02-28T07:30:56;14.47;;;7.77;;
9034;SDS011;4552;43.422;24.592;2023-02-28T07:33:23;14.27;;;8.80;;
9034;SDS011;4552;43.422;24.592;2023-02-28T07:35:50;15.00;;;8.50;;
9034;SDS011;4552;43.422;24.592;2023-02-28T07:38:18;14.07;;;7.47;;
9034;SDS011;4552;43.422;24.592;2023-02-28T07:40:45;13.97;;;7.77;;
9034;SDS011;4552;43.422;24.592;2023-02-28T07:43:12;17.20;;;10.33;;
9034;SDS011;4552;43.422;24.592;2023-02-28T07:45:39;12.90;;;7.47;;
9034;SDS011;4552;43.422;24.592;2023-02-28T07:48:07;14.67;;;8.33;;
9034;SDS011;4552;43.422;24.592;2023-02-28T07:50:35;15.53;;;8.27;;
9034;SDS011;4552;43.422;24.592;2023-02-28T07:53:03;14.47;;;7.57;;
9034;SDS011;4552;43.422;24.592;2023-02-28T07:55:30;13.37;;;7.90;;
9034;SDS011;4552;43.422;24.592;2023-02-28T07:57:57;12.93;;;7.63;;
9034;SDS011;4552;43.422;24.592;2023-02-28T08:00:24;12.37;;;7.27;;
9034;SDS011;4552;43.422;24.592;2023-02-28T08:02:52;12.57;;;8.03;;
9034;SDS011;4552;43.422;24.592;2023-02-28T08:05:20;14.80;;;7.83;;
9034;SDS011;4552;43.422;24.592;2023-02-28T08:07:48;13.97;;;7.60;;
9034;SDS011;4552;43.422;24.592;2023-02-28T08:10:16;11.93;;;7.70;;
9034;SDS011;4552;43.422;24.592;2023-02-28T08:12:49;13.63;;;7.30;;
9034;SDS011;4552;43.422;24.592;2023-02-28T08:15:16;14.47;;;7.77;;
9034;SDS011;4552;43.422;24.592;2023-02-28T08:17:43;14.17;;;8.07;;
9034;SDS011;4552;43.422;24.592;2023-02-28T08:20:11;16.33;;;8.47;;
9034;SDS011;4552;43.422;24.592;2023-02-28T08:22:40;13.37;;;8.00;;
9034;SDS011;4552;43.422;24.592;2023-02-28T08:25:08;13.20;;;8.00;;
9034;SDS011;4552;43.422;24.592;2023-02-28T08:27:36;12.23;;;7.13;;
9034;SDS011;4552;43.422;24.592;2023-02-28T08:30:06;13.33;;;7.63;;
9034;SDS011;4552;43.422;24.592;2023-02-28T08:32:35;12.83;;;7.70;;
9034;SDS011;4552;43.422;24.592;2023-02-28T08:35:03;14.13;;;7.63;;
9034;SDS011;4552;43.422;24.592;2023-02-28T08:37:31;17.60;;;8.60;;
9034;SDS011;4552;43.422;24.592;2023-02-28T08:40:00;12.77;;;7.73;;
9034;SDS011;4552;43.422;24.592;2023-02-28T08:42:30;13.87;;;7.37;;
9034;SDS011;4552;43.422;24.592;2023-02-28T08:44:58;16.17;;;7.67;;
9034;SDS011;4552;43.422;24.592;2023-02-28T08:47:25;18.23;;;8.10;;
9034;SDS011;4552;43.422;24.592;2023-02-28T08:49:53;15.23;;;8.47;;
9034;SDS011;4552;43.422;24.592;2023-02-28T08:52:20;14.17;;;8.07;;
9034;SDS011;4552;43.422;24.592;2023-02-28T08:54:47;14.13;;;8.33;;
9034;SDS011;4552;43.422;24.592;2023-02-28T08:57:15;16.33;;;10.65;;
9034;SDS011;4552;43.422;24.592;2023-02-28T08:59:42;13.30;;;8.17;;
9034;SDS011;4552;43.422;24.592;2023-02-28T09:02:12;15.83;;;8.47;;
9034;SDS011;4552;43.422;24.592;2023-02-28T09:04:40;14.37;;;7.90;;
9034;SDS011;4552;43.422;24.592;2023-02-28T09:07:07;11.80;;;7.40;;
9034;SDS011;4552;43.422;24.592;2023-02-28T09:09:34;13.57;;;8.87;;
9034;SDS011;4552;43.422;24.592;2023-02-28T09:12:01;12.53;;;7.73;;
9034;SDS011;4552;43.422;24.592;2023-02-28T09:14:30;13.00;;;7.10;;
9034;SDS011;4552;43.422;24.592;2023-02-28T09:16:57;11.00;;;7.03;;
9034;SDS011;4552;43.422;24.592;2023-02-28T09:19:24;13.57;;;8.23;;
9034;SDS011;4552;43.422;24.592;2023-02-28T09:21:51;12.37;;;7.30;;
9034;SDS011;4552;43.422;24.592;2023-02-28T09:24:18;12.33;;;7.30;;
9034;SDS011;4552;43.422;24.592;2023-02-28T09:26:45;13.37;;;7.47;;
9034;SDS011;4552;43.422;24.592;2023-02-28T09:29:13;12.93;;;7.13;;
9034;SDS011;4552;43.422;24.592;2023-02-28T09:31:44;13.17;;;7.27;;
9034;SDS011;4552;43.422;24.592;2023-02-28T09:34:11;11.27;;;6.90;;
9034;SDS011;4552;43.422;24.592;2023-02-28T09:36:40;11.13;;;7.07;;
9034;SDS011;4552;43.422;24.592;2023-02-28T09:39:08;10.63;;;6.50;;
9034;SDS011;4552;43.422;24.592;2023-02-28T09:41:37;13.23;;;7.07;;
9034;SDS011;4552;43.422;24.592;2023-02-28T09:44:13;15.07;;;7.80;;
9034;SDS011;4552;43.422;24.592;2023-02-28T09:46:48;11.90;;;7.40;;
9034;SDS011;4552;43.422;24.592;2023-02-28T09:49:21;10.07;;;6.40;;
9034;SDS011;4552;43.422;24.592;2023-02-28T09:51:55;10.90;;;6.50;;
9034;SDS011;4552;43.422;24.592;2023-02-28T09:54:27;11.73;;;6.63;;
9034;SDS011;4552;43.422;24.592;2023-02-28T09:56:57;12.63;;;6.93;;
9034;SDS011;4552;43.422;24.592;2023-02-28T09:59:32;12.10;;;6.60;;
9034;SDS011;4552;43.422;24.592;2023-02-28T10:05:16;14.33;;;8.10;;
9034;SDS011;4552;43.422;24.592;2023-02-28T10:07:49;13.00;;;6.53;;
9034;SDS011;4552;43.422;24.592;2023-02-28T10:10:27;13.03;;;7.17;;
9034;SDS011;4552;43.422;24.592;2023-02-28T10:12:59;13.70;;;7.37;;
9034;SDS011;4552;43.422;24.592;2023-02-28T10:15:29;12.07;;;6.87;;
9034;SDS011;4552;43.422;24.592;2023-02-28T10:18:02;10.60;;;6.43;;
9034;SDS011;4552;43.422;24.592;2023-02-28T10:20:33;14.80;;;8.10;;
9034;SDS011;4552;43.422;24.592;2023-02-28T10:23:04;13.10;;;6.57;;
9034;SDS011;4552;43.422;24.592;2023-02-28T10:25:39;12.90;;;7.57;;
9034;SDS011;4552;43.422;24.592;2023-02-28T10:28:10;11.63;;;7.17;;
9034;SDS011;4552;43.422;24.592;2023-02-28T10:30:40;13.93;;;7.60;;
9034;SDS011;4552;43.422;24.592;2023-02-28T10:33:15;11.53;;;6.80;;
9034;SDS011;4552;43.422;24.592;2023-02-28T10:35:47;12.27;;;7.50;;
9034;SDS011;4552;43.422;24.592;2023-02-28T10:38:16;11.00;;;6.30;;
9034;SDS011;4552;43.422;24.592;2023-02-28T10:40:45;11.23;;;7.17;;
9034;SDS011;4552;43.422;24.592;2023-02-28T10:43:18;11.63;;;6.93;;
9034;SDS011;4552;43.422;24.592;2023-02-28T10:45:52;13.97;;;7.03;;
9034;SDS011;4552;43.422;24.592;2023-02-28T10:48:34;11.77;;;6.67;;
9034;SDS011;4552;43.422;24.592;2023-02-28T10:51:04;12.63;;;7.53;;
9034;SDS011;4552;43.422;24.592;2023-02-28T10:53:47;13.00;;;6.97;;
9034;SDS011;4552;43.422;24.592;2023-02-28T10:56:17;12.20;;;7.13;;
9034;SDS011;4552;43.422;24.592;2023-02-28T10:58:55;13.90;;;7.97;;
9034;SDS011;4552;43.422;24.592;2023-02-28T11:01:34;13.37;;;7.87;;
9034;SDS011;4552;43.422;24.592;2023-02-28T11:04:05;13.67;;;7.10;;
9034;SDS011;4552;43.422;24.592;2023-02-28T11:06:44;14.30;;;6.93;;
9034;SDS011;4552;43.422;24.592;2023-02-28T11:09:18;12.23;;;7.33;;
9034;SDS011;4552;43.422;24.592;2023-02-28T11:11:49;13.43;;;6.83;;
9034;SDS011;4552;43.422;24.592;2023-02-28T11:14:19;13.27;;;7.47;;
9034;SDS011;4552;43.422;24.592;2023-02-28T11:16:51;15.63;;;7.87;;
9034;SDS011;4552;43.422;24.592;2023-02-28T11:19:23;13.93;;;7.57;;
9034;SDS011;4552;43.422;24.592;2023-02-28T11:21:56;12.77;;;6.87;;
9034;SDS011;4552;43.422;24.592;2023-02-28T11:24:27;15.17;;;7.10;;
9034;SDS011;4552;43.422;24.592;2023-02-28T11:27:05;14.40;;;7.77;;
9034;SDS011;4552;43.422;24.592;2023-02-28T11:29:46;12.43;;;7.50;;
9034;SDS011;4552;43.422;24.592;2023-02-28T11:32:18;17.23;;;7.13;;
9034;SDS011;4552;43.422;24.592;2023-02-28T11:35:01;12.87;;;7.17;;
9034;SDS011;4552;43.422;24.592;2023-02-28T11:37:32;10.70;;;6.73;;
9034;SDS011;4552;43.422;24.592;2023-02-28T11:39:59;13.00;;;6.87;;
9034;SDS011;4552;43.422;24.592;2023-02-28T11:42:32;12.10;;;7.60;;
9034;SDS011;4552;43.422;24.592;2023-02-28T11:47:58;13.30;;;7.13;;
9034;SDS011;4552;43.422;24.592;2023-02-28T11:50:42;14.27;;;6.97;;
9034;SDS011;4552;43.422;24.592;2023-02-28T11:53:21;16.97;;;8.13;;
9034;SDS011;4552;43.422;24.592;2023-02-28T11:55:54;12.93;;;7.27;;
9034;SDS011;4552;43.422;24.592;2023-02-28T11:58:32;12.47;;;7.27;;
9034;SDS011;4552;43.422;24.592;2023-02-28T12:01:14;12.87;;;7.47;;
9034;SDS011;4552;43.422;24.592;2023-02-28T12:03:53;13.97;;;7.53;;
9034;SDS011;4552;43.422;24.592;2023-02-28T12:06:33;13.03;;;7.23;;
9034;SDS011;4552;43.422;24.592;2023-02-28T12:09:13;12.82;;;7.47;;
9034;SDS011;4552;43.422;24.592;2023-02-28T12:11:56;10.73;;;6.83;;
9034;SDS011;4552;43.422;24.592;2023-02-28T12:14:39;10.67;;;6.50;;
9034;SDS011;4552;43.422;24.592;2023-02-28T12:17:43;12.93;;;7.10;;
9034;SDS011;4552;43.422;24.592;2023-02-28T12:20:25;12.40;;;6.30;;
9034;SDS011;4552;43.422;24.592;2023-02-28T12:23:10;11.67;;;6.47;;
9034;SDS011;4552;43.422;24.592;2023-02-28T12:26:01;10.60;;;6.70;;
9034;SDS011;4552;43.422;24.592;2023-02-28T12:28:35;12.80;;;7.60;;
9034;SDS011;4552;43.422;24.592;2023-02-28T12:31:08;10.80;;;6.57;;
9034;SDS011;4552;43.422;24.592;2023-02-28T12:33:42;18.00;;;7.83;;
9034;SDS011;4552;43.422;24.592;2023-02-28T12:36:14;11.20;;;6.70;;
9034;SDS011;4552;43.422;24.592;2023-02-28T12:38:48;15.10;;;7.53;;
9034;SDS011;4552;43.422;24.592;2023-02-28T12:41:22;16.20;;;8.17;;
9034;SDS011;4552;43.422;24.592;2023-02-28T12:43:57;13.37;;;7.93;;
9034;SDS011;4552;43.422;24.592;2023-02-28T12:46:30;11.87;;;7.20;;
9034;SDS011;4552;43.422;24.592;2023-02-28T12:49:04;11.33;;;7.00;;
9034;SDS011;4552;43.422;24.592;2023-02-28T12:51:32;10.43;;;6.87;;
9034;SDS011;4552;43.422;24.592;2023-02-28T12:54:07;13.80;;;6.97;;
9034;SDS011;4552;43.422;24.592;2023-02-28T12:56:43;13.40;;;7.10;;
9034;SDS011;4552;43.422;24.592;2023-02-28T12:59:16;10.87;;;6.53;;
9034;SDS011;4552;43.422;24.592;2023-02-28T13:01:57;11.87;;;6.77;;
9034;SDS011;4552;43.422;24.592;2023-02-28T13:04:42;12.73;;;7.30;;
9034;SDS011;4552;43.422;24.592;2023-02-28T13:10:22;11.40;;;6.90;;
9034;SDS011;4552;43.422;24.592;2023-02-28T13:12:51;15.20;;;7.83;;
9034;SDS011;4552;43.422;24.592;2023-02-28T13:15:19;12.40;;;6.77;;
9034;SDS011;4552;43.422;24.592;2023-02-28T13:17:50;10.80;;;6.10;;
9034;SDS011;4552;43.422;24.592;2023-02-28T13:20:19;10.90;;;6.53;;
9034;SDS011;4552;43.422;24.592;2023-02-28T13:22:49;10.83;;;6.23;;
9034;SDS011;4552;43.422;24.592;2023-02-28T13:31:32;14.13;;;7.23;;
9034;SDS011;4552;43.422;24.592;2023-02-28T13:34:20;13.57;;;6.70;;
9034;SDS011;4552;43.422;24.592;2023-02-28T13:36:47;10.97;;;6.40;;
9034;SDS011;4552;43.422;24.592;2023-02-28T13:42:31;10.87;;;6.87;;
9034;SDS011;4552;43.422;24.592;2023-02-28T13:45:20;13.13;;;7.23;;
9034;SDS011;4552;43.422;24.592;2023-02-28T13:47:56;10.93;;;6.50;;
9034;SDS011;4552;43.422;24.592;2023-02-28T13:50:31;12.63;;;7.30;;
9034;SDS011;4552;43.422;24.592;2023-02-28T13:53:18;11.57;;;6.93;;
9034;SDS011;4552;43.422;24.592;2023-02-28T13:55:58;15.07;;;7.60;;
9034;SDS011;4552;43.422;24.592;2023-02-28T13:58:38;14.03;;;7.10;;
9034;SDS011;4552;43.422;24.592;2023-02-28T14:01:14;14.97;;;7.33;;
9034;SDS011;4552;43.422;24.592;2023-02-28T14:03:58;18.13;;;9.07;;
9034;SDS011;4552;43.422;24.592;2023-02-28T14:06:46;16.50;;;8.67;;
9034;SDS011;4552;43.422;24.592;2023-02-28T14:09:17;15.27;;;8.40;;
9034;SDS011;4552;43.422;24.592;2023-02-28T14:11:51;16.77;;;8.03;;
9034;SDS011;4552;43.422;24.592;2023-02-28T14:17:25;13.83;;;7.93;;
9034;SDS011;4552;43.422;24.592;2023-02-28T14:19:52;18.83;;;8.63;;
9034;SDS011;4552;43.422;24.592;2023-02-28T14:22:26;13.87;;;8.10;;
9034;SDS011;4552;43.422;24.592;2023-02-28T14:25:10;14.73;;;8.03;;
9034;SDS011;4552;43.422;24.592;2023-02-28T14:27:46;13.80;;;7.17;;
9034;SDS011;4552;43.422;24.592;2023-02-28T14:30:26;13.63;;;7.73;;
9034;SDS011;4552;43.422;24.592;2023-02-28T14:33:16;11.07;;;6.87;;
9034;SDS011;4552;43.422;24.592;2023-02-28T14:38:35;14.83;;;7.53;;
9034;SDS011;4552;43.422;24.592;2023-02-28T14:41:14;16.07;;;7.73;;
9034;SDS011;4552;43.422;24.592;2023-02-28T14:43:49;14.07;;;7.60;;
9034;SDS011;4552;43.422;24.592;2023-02-28T14:46:21;16.17;;;8.00;;
9034;SDS011;4552;43.422;24.592;2023-02-28T14:48:53;19.90;;;10.53;;
9034;SDS011;4552;43.422;24.592;2023-02-28T14:51:22;14.57;;;8.33;;
9034;SDS011;4552;43.422;24.592;2023-02-28T14:53:51;14.53;;;7.83;;
9034;SDS011;4552;43.422;24.592;2023-02-28T14:56:33;14.63;;;7.33;;
9034;SDS011;4552;43.422;24.592;2023-02-28T14:59:02;11.77;;;6.97;;
9034;SDS011;4552;43.422;24.592;2023-02-28T15:01:30;13.90;;;6.07;;
9034;SDS011;4552;43.422;24.592;2023-02-28T15:04:05;13.37;;;7.67;;
9034;SDS011;4552;43.422;24.592;2023-02-28T15:06:42;12.07;;;6.97;;
9034;SDS011;4552;43.422;24.592;2023-02-28T15:09:10;19.33;;;7.90;;
9034;SDS011;4552;43.422;24.592;2023-02-28T15:11:41;13.77;;;8.13;;
9034;SDS011;4552;43.422;24.592;2023-02-28T15:14:15;15.10;;;7.73;;
9034;SDS011;4552;43.422;24.592;2023-02-28T15:16:45;14.80;;;7.00;;
9034;SDS011;4552;43.422;24.592;2023-02-28T15:19:26;9.93;;;6.53;;
9034;SDS011;4552;43.422;24.592;2023-02-28T15:21:57;13.03;;;6.47;;
9034;SDS011;4552;43.422;24.592;2023-02-28T15:24:35;17.07;;;6.90;;
9034;SDS011;4552;43.422;24.592;2023-02-28T15:27:11;12.43;;;6.47;;
9034;SDS011;4552;43.422;24.592;2023-02-28T15:29:43;11.63;;;6.43;;
9034;SDS011;4552;43.422;24.592;2023-02-28T15:32:24;11.87;;;6.60;;
9034;SDS011;4552;43.422;24.592;2023-02-28T15:34:55;16.63;;;7.30;;
9034;SDS011;4552;43.422;24.592;2023-02-28T15:37:33;12.00;;;7.17;;
9034;SDS011;4552;43.422;24.592;2023-02-28T15:40:14;11.03;;;5.93;;
9034;SDS011;4552;43.422;24.592;2023-02-28T15:42:57;11.67;;;6.40;;
9034;SDS011;4552;43.422;24.592;2023-02-28T15:45:26;11.13;;;6.27;;